Kenai Municipal Airport Kenai US
ICAO: PAEN
IATA:
Category: Medium
Scheduled Services:

Elevation: 99 ft
TransAlt. 18000 ft.

Airport Communications:
ATIS:120.3
ANCHORAGE CNTR:125.7
CTAF:121.3
RDO:122.65
GND:121.9
TWEB:117.6
TWR:121.3

PAEN Zoom In..

If you have problems with the map follow the link
https://www.worldairports.se/pages/airport.php?
ICAO=PAEN

Runways:

(A) RW 01L length 7830 ft width 150 ft
---- / hdg 12

(B) RW 01R length 2000 ft width 60 ft
---- / hdg 12

(C) RW 19L length 2000 ft width 60 ft
---- / hdg 192

(D) RW 19R length 7830 ft width 150 ft
ILS 108.90 / hdg 192

Location; PAEN
Day. 29 / Time. 16.53 Zulu
* Altimeter: 28.49
* Temperature: -03° c. -26.6°f.
* Wind from: 010° Speed 20 kn.
Dewpoint: -12° c.
Visibility: 10 Statute Miles.
Clouds: Overcast 5000 ft.

PAEN 291653Z 01020KT 10SM OVC050 M03/M12 A2849 RMK AO2 PK WND 36026/1554 SLP650 T10281117


Wind From 010°
Speed 20 kn.

 
 
jpsmedia worldairports.se 2020   terms of use